Time;durP1;ratioP1;P1;durP2;ratioP2;P2;SDS_P1;SDS_P2;PMS_P1;PMS_P2;Temp;Humidity;BMP_temperature;BMP_pressure;BME280_temperature;BME280_humidity;BME280_pressure;Samples;Min_cycle;Max_cycle;Signal;HPM_P1;HPM_P2
2023/02/06 00:00:09;;;;;;;31.73;17.52;;;;;;;4.46;93.61;100172.72;4138884;28;20307;-86
2023/02/06 00:02:13;;;;;;;26.55;17.58;;;;;;;4.49;94.40;100175.25;4156847;28;20203;-86
2023/02/06 00:04:16;;;;;;;41.40;23.02;;;;;;;4.47;93.78;100172.69;4173299;28;20631;-86
2023/02/06 00:06:19;;;;;;;40.60;24.95;;;;;;;4.47;93.06;100172.69;4142853;28;20210;-86
2023/02/06 00:08:22;;;;;;;34.55;21.50;;;;;;;4.51;93.14;100174.38;4169352;28;20264;-86
2023/02/06 00:10:25;;;;;;;32.90;19.52;;;;;;;4.56;93.33;100180.34;4134988;28;20313;-86
2023/02/06 00:12:29;;;;;;;31.77;18.50;;;;;;;4.59;93.25;100177.72;4162469;28;20226;-86
2023/02/06 00:14:32;;;;;;;27.08;17.10;;;;;;;4.60;93.35;100184.63;4155961;28;20611;-86
2023/02/06 00:16:35;;;;;;;28.75;17.00;;;;;;;4.65;92.95;100187.16;4158619;28;20214;-85
2023/02/06 00:18:38;;;;;;;28.02;17.40;;;;;;;4.66;93.97;100184.56;4157785;28;20229;-85
2023/02/06 00:20:41;;;;;;;29.58;18.15;;;;;;;4.67;93.91;100183.66;4141883;28;20599;-85
2023/02/06 00:22:44;;;;;;;28.15;18.08;;;;;;;4.68;92.88;100190.53;4171504;28;20280;-85
2023/02/06 00:24:47;;;;;;;23.50;15.88;;;;;;;4.67;92.52;100181.06;4142999;28;20555;-85
2023/02/06 00:26:50;;;;;;;25.92;16.40;;;;;;;4.67;92.66;100181.06;4163940;28;20241;-86
2023/02/06 00:28:55;;;;;;;31.98;16.00;;;;;;;4.68;92.18;100187.13;4159175;28;20265;-83
2023/02/06 00:30:59;;;;;;;28.50;17.13;;;;;;;4.63;93.11;100176.84;4140413;28;20290;-87
2023/02/06 00:33:02;;;;;;;28.48;17.38;;;;;;;4.65;92.30;100185.41;4153165;28;20227;-85
2023/02/06 00:35:06;;;;;;;27.30;16.92;;;;;;;4.65;92.74;100177.66;4156699;28;20211;-85
2023/02/06 00:37:09;;;;;;;28.83;17.02;;;;;;;4.62;92.79;100176.84;4156340;28;20223;-84
2023/02/06 00:39:12;;;;;;;25.52;16.98;;;;;;;4.64;92.01;100173.34;4140708;28;20200;-84
2023/02/06 00:41:15;;;;;;;27.17;17.67;;;;;;;4.66;92.29;100173.34;4158601;28;20203;-85
2023/02/06 00:43:18;;;;;;;26.73;16.70;;;;;;;4.67;93.04;100185.41;4155777;28;20223;-85
2023/02/06 00:45:23;;;;;;;27.90;19.00;;;;;;;4.68;92.60;100177.63;4165589;28;20233;-85
2023/02/06 00:47:26;;;;;;;26.55;16.60;;;;;;;4.73;91.96;100179.25;4156855;28;20893;-85
2023/02/06 00:49:29;;;;;;;30.08;19.20;;;;;;;4.75;92.98;100179.25;4156832;28;20245;-85
2023/02/06 00:51:32;;;;;;;32.22;22.25;;;;;;;4.72;92.63;100177.56;4146515;28;20210;-85
2023/02/06 00:53:36;;;;;;;28.52;18.88;;;;;;;4.74;93.04;100169.81;4153384;28;20218;-84
2023/02/06 00:55:38;;;;;;;27.52;18.25;;;;;;;4.74;93.14;100167.22;4159359;28;20839;-85
2023/02/06 00:57:41;;;;;;;27.70;16.52;;;;;;;4.77;93.03;100167.19;4142515;28;20219;-85
2023/02/06 00:59:44;;;;;;;25.27;17.00;;;;;;;4.78;92.14;100179.22;4161525;28;20257;-84
2023/02/06 01:01:49;;;;;;;30.02;17.33;;;;;;;4.81;92.17;100166.25;4176444;28;20234;-85
2023/02/06 01:03:52;;;;;;;28.60;18.10;;;;;;;4.82;92.48;100162.81;4144942;28;20596;-85
2023/02/06 01:05:55;;;;;;;32.08;18.77;;;;;;;4.84;93.31;100168.78;4141817;28;20314;-85
2023/02/06 01:07:58;;;;;;;27.63;18.27;;;;;;;4.82;92.08;100166.22;4157364;28;20226;-85
2023/02/06 01:10:01;;;;;;;32.05;19.48;;;;;;;4.84;92.07;100168.78;4174246;28;20202;-84
2023/02/06 01:12:05;;;;;;;27.25;17.23;;;;;;;4.85;92.41;100170.53;4173271;28;20219;-85
2023/02/06 01:14:08;;;;;;;29.30;17.83;;;;;;;4.84;92.52;100166.22;4141026;28;20224;-85
2023/02/06 01:16:13;;;;;;;36.25;19.02;;;;;;;4.87;92.00;100177.38;4158639;28;20207;-85
2023/02/06 01:18:17;;;;;;;29.83;18.02;;;;;;;4.88;92.50;100180.81;4157202;28;20273;-85
2023/02/06 01:20:22;;;;;;;31.92;19.60;;;;;;;4.89;91.70;100187.72;4137821;28;20753;-85
2023/02/06 01:22:25;;;;;;;32.15;18.50;;;;;;;4.90;92.01;100182.53;4157233;28;20274;-85
2023/02/06 01:24:29;;;;;;;36.08;20.60;;;;;;;4.89;91.78;100182.53;4154112;28;20265;-85
2023/02/06 01:26:32;;;;;;;33.15;20.67;;;;;;;4.87;92.34;100176.50;4172269;28;20213;-85
2023/02/06 01:28:35;;;;;;;33.13;19.88;;;;;;;4.85;92.44;100184.28;4141642;28;20294;-85
2023/02/06 01:30:39;;;;;;;34.22;21.15;;;;;;;4.88;92.93;100178.22;4155386;28;20290;-85
2023/02/06 01:32:42;;;;;;;40.53;22.75;;;;;;;4.88;92.56;100175.66;4143319;28;20595;-85
2023/02/06 01:34:46;;;;;;;36.75;21.45;;;;;;;4.90;93.01;100184.22;4138227;28;20219;-85
2023/02/06 01:36:49;;;;;;;31.95;20.50;;;;;;;4.87;93.12;100176.50;4158541;28;20254;-85
2023/02/06 01:38:52;;;;;;;33.15;19.20;;;;;;;4.87;93.14;100179.09;4159639;28;20237;-85
2023/02/06 01:40:56;;;;;;;32.40;19.20;;;;;;;4.87;93.42;100171.34;4153926;28;20200;-85
2023/02/06 01:43:00;;;;;;;34.38;19.92;;;;;;;4.90;93.03;100171.31;4161667;28;20210;-85
2023/02/06 01:45:35;;;;;;;34.25;19.35;;;;;;;4.92;93.38;100172.16;4176158;28;21558;-85
2023/02/06 01:47:39;;;;;;;30.00;18.45;;;;;;;4.92;93.28;100167.00;4136711;28;20207;-85
2023/02/06 01:49:44;;;;;;;31.17;18.85;;;;;;;4.93;93.48;100166.09;4157572;28;20211;-85
2023/02/06 01:51:49;;;;;;;30.40;18.92;;;;;;;4.93;93.77;100168.69;4155239;28;20289;-86
2023/02/06 01:53:55;;;;;;;34.05;20.50;;;;;;;4.92;93.31;100167.00;4141213;28;20201;-85
2023/02/06 01:56:00;;;;;;;33.42;20.58;;;;;;;4.88;93.42;100166.16;4157441;28;20245;-85
2023/02/06 01:58:04;;;;;;;36.28;20.90;;;;;;;4.89;93.37;100172.19;4156385;28;20246;-85
2023/02/06 02:00:10;;;;;;;34.53;20.58;;;;;;;4.87;94.26;100173.94;4143383;28;20307;-85
2023/02/06 02:02:16;;;;;;;32.97;20.67;;;;;;;4.90;93.87;100171.31;4175283;28;20212;-85
2023/02/06 02:04:21;;;;;;;38.25;21.40;;;;;;;4.91;93.37;100183.38;4158162;28;20211;-86
2023/02/06 02:06:26;;;;;;;34.05;21.80;;;;;;;4.87;93.99;100173.94;4155661;28;20206;-86
2023/02/06 02:08:35;;;;;;;38.55;22.30;;;;;;;4.85;93.73;100173.09;4159013;28;20660;-85
2023/02/06 02:10:38;;;;;;;40.65;24.17;;;;;;;4.85;93.66;100179.13;4155768;28;20692;-85
2023/02/06 02:12:41;;;;;;;35.17;23.33;;;;;;;4.88;94.00;100183.41;4172281;28;21008;-85
2023/02/06 02:14:46;;;;;;;33.50;23.30;;;;;;;4.86;93.61;100180.84;4157645;28;20305;-86
2023/02/06 02:16:56;;;;;;;34.67;23.25;;;;;;;4.88;93.83;100170.47;4175057;28;20232;-85
2023/02/06 02:19:16;;;;;;;35.08;23.95;;;;;;;4.87;92.45;100173.94;4141236;28;20211;-85
2023/02/06 02:22:07;;;;;;;34.88;22.45;;;;;;;4.77;91.63;100162.00;4157428;28;20225;-85
2023/02/06 02:24:13;;;;;;;33.78;22.45;;;;;;;4.70;92.67;100165.53;4140132;28;20216;-86
2023/02/06 02:26:35;;;;;;;36.83;23.58;;;;;;;4.64;92.27;100170.78;4153706;28;20278;-86
2023/02/06 02:29:12;;;;;;;35.25;22.77;;;;;;;4.64;92.80;100167.34;4154711;28;20203;-86
2023/02/06 02:31:37;;;;;;;30.67;22.10;;;;;;;4.64;93.21;100165.59;4105430;28;20228;-86
2023/02/06 02:34:06;;;;;;;35.42;22.95;;;;;;;4.64;92.32;100170.78;4135263;28;20295;-85
2023/02/06 02:36:14;;;;;;;33.05;22.75;;;;;;;4.65;93.33;100169.06;4170847;28;20904;-86
2023/02/06 02:38:30;;;;;;;35.83;22.38;;;;;;;4.67;93.47;100168.16;4170119;28;20231;-85
2023/02/06 02:40:40;;;;;;;35.05;22.77;;;;;;;4.64;93.19;100152.69;4158528;28;20210;-86
2023/02/06 02:42:47;;;;;;;36.55;23.88;;;;;;;4.61;93.10;100157.88;4172266;28;20288;-86
2023/02/06 02:44:54;;;;;;;33.95;22.60;;;;;;;4.59;93.00;100149.31;4155489;28;20202;-85
2023/02/06 02:47:02;;;;;;;35.53;24.75;;;;;;;4.57;92.79;100145.91;4153602;28;20616;-85
2023/02/06 02:49:08;;;;;;;38.60;28.40;;;;;;;4.59;93.18;100143.31;4172993;28;20992;-86
2023/02/06 02:51:13;;;;;;;41.65;27.55;;;;;;;4.60;92.60;100147.56;4170382;28;20229;-86
2023/02/06 02:53:17;;;;;;;35.80;24.98;;;;;;;4.58;93.97;100160.50;4157916;28;20241;-86
2023/02/06 02:55:22;;;;;;;44.15;30.98;;;;;;;4.58;93.45;100154.50;4154477;28;20261;-86
2023/02/06 02:57:32;;;;;;;34.97;23.38;;;;;;;4.59;93.18;100156.22;4138867;28;20710;-85
2023/02/06 02:59:37;;;;;;;42.40;30.10;;;;;;;4.58;93.05;100150.19;4154487;28;20249;-86
2023/02/06 03:01:43;;;;;;;33.38;23.48;;;;;;;4.59;93.13;100154.47;4153439;28;20778;-85
2023/02/06 03:03:48;;;;;;;36.55;23.75;;;;;;;4.59;93.76;100161.38;4138325;28;20204;-86
2023/02/06 03:06:01;;;;;;;31.75;21.65;;;;;;;4.57;92.84;100168.28;4157621;28;20672;-86
2023/02/06 03:08:13;;;;;;;32.25;21.63;;;;;;;4.53;93.55;100164.88;4141143;28;20203;-85
2023/02/06 03:10:22;;;;;;;32.75;22.30;;;;;;;4.52;92.87;100160.59;4153447;28;20210;-85
2023/02/06 03:12:34;;;;;;;32.28;21.85;;;;;;;4.45;92.96;100163.25;4141599;28;20222;-86
2023/02/06 03:14:41;;;;;;;39.63;22.23;;;;;;;4.41;93.35;100161.59;4171857;28;20257;-85
2023/02/06 03:16:47;;;;;;;35.13;22.33;;;;;;;4.39;92.86;100152.97;4158389;28;20784;-85
2023/02/06 03:18:55;;;;;;;33.28;22.33;;;;;;;4.36;92.88;100153.00;4173367;28;20681;-86
2023/02/06 03:20:59;;;;;;;34.97;22.15;;;;;;;4.37;94.13;100158.16;4155399;28;20201;-86
2023/02/06 03:23:04;;;;;;;32.60;22.15;;;;;;;4.36;93.42;100153.88;4167497;28;20201;-85
2023/02/06 03:25:12;;;;;;;33.28;23.02;;;;;;;4.34;93.29;100153.03;4156045;28;20211;-85
2023/02/06 03:27:16;;;;;;;32.97;22.63;;;;;;;4.30;91.52;100150.50;4172319;28;20225;-85
2023/02/06 03:29:19;;;;;;;30.10;22.05;;;;;;;4.22;91.06;100149.72;4159899;28;20625;-86
2023/02/06 03:31:26;;;;;;;31.23;22.13;;;;;;;4.10;90.21;100143.84;4167020;28;20647;-86
2023/02/06 03:33:32;;;;;;;35.90;23.23;;;;;;;4.00;89.82;100145.66;4158143;28;20202;-86
2023/02/06 03:35:36;;;;;;;31.95;22.65;;;;;;;3.93;90.86;100140.56;4140423;28;20215;-86
2023/02/06 03:37:40;;;;;;;33.78;23.70;;;;;;;3.81;90.71;100143.28;4171517;28;20742;-86
2023/02/06 03:39:43;;;;;;;34.72;23.38;;;;;;;3.68;91.28;100133.91;4139148;28;20303;-85
2023/02/06 03:41:49;;;;;;;33.80;23.00;;;;;;;3.56;92.06;100139.16;4173917;28;20202;-85
2023/02/06 03:43:52;;;;;;;31.63;22.92;;;;;;;3.52;91.90;100141.78;4159326;28;20288;-86
2023/02/06 03:45:58;;;;;;;29.98;22.02;;;;;;;3.47;92.15;100151.28;4142577;28;20195;-86
2023/02/06 03:48:04;;;;;;;31.92;22.25;;;;;;;3.43;92.09;100147.03;4174621;28;20611;-86
2023/02/06 03:50:09;;;;;;;31.65;22.40;;;;;;;3.37;91.79;100144.50;4172793;28;20240;-85
2023/02/06 03:52:13;;;;;;;32.17;22.67;;;;;;;3.36;92.53;100147.94;4158579;28;20234;-85
2023/02/06 03:54:18;;;;;;;32.55;22.77;;;;;;;3.38;92.29;100153.94;4145061;28;20311;-85
2023/02/06 03:56:28;;;;;;;33.13;23.48;;;;;;;3.38;93.03;100157.38;4157688;28;20207;-85
2023/02/06 03:58:32;;;;;;;32.13;23.10;;;;;;;3.37;92.80;100159.97;4176193;28;20222;-85
2023/02/06 04:00:37;;;;;;;34.33;24.67;;;;;;;3.32;93.10;100160.00;4155660;28;20234;-85
2023/02/06 04:02:41;;;;;;;35.33;23.63;;;;;;;3.38;93.46;100165.13;4146266;28;20219;-86
2023/02/06 04:04:45;;;;;;;33.47;23.50;;;;;;;3.45;93.99;100161.59;4142065;28;20222;-86
2023/02/06 04:06:48;;;;;;;34.50;23.90;;;;;;;3.53;93.85;100161.56;4159660;28;20206;-86
2023/02/06 04:08:51;;;;;;;32.60;23.60;;;;;;;3.54;93.09;100169.28;4154197;28;20207;-86
2023/02/06 04:10:54;;;;;;;30.65;23.38;;;;;;;3.53;93.28;100164.13;4159883;28;20585;-85
2023/02/06 04:12:57;;;;;;;37.00;24.63;;;;;;;3.57;93.41;100165.84;4152486;28;20210;-86
2023/02/06 04:15:01;;;;;;;31.60;23.10;;;;;;;3.55;93.33;100164.97;4150770;28;20199;-88
2023/02/06 04:17:06;;;;;;;34.83;24.02;;;;;;;3.56;92.90;100164.97;4153510;28;20212;-88
2023/02/06 04:19:09;;;;;;;33.05;24.40;;;;;;;3.47;93.47;100154.75;4160942;28;20222;-88
2023/02/06 04:21:12;;;;;;;30.98;22.40;;;;;;;3.46;93.43;100158.19;4156404;28;20212;-86
2023/02/06 04:23:15;;;;;;;31.45;22.63;;;;;;;3.47;92.18;100159.91;4158018;28;20215;-85
2023/02/06 04:25:18;;;;;;;32.08;23.33;;;;;;;3.53;93.11;100175.28;4158503;28;20583;-85
2023/02/06 04:27:23;;;;;;;32.67;22.73;;;;;;;3.58;93.12;100163.25;4157103;28;20207;-87
2023/02/06 04:29:26;;;;;;;30.33;22.00;;;;;;;3.58;93.10;100163.25;4175818;28;20202;-85
2023/02/06 04:31:31;;;;;;;33.08;23.33;;;;;;;3.65;92.46;100162.31;4161547;28;20233;-86
2023/02/06 04:33:34;;;;;;;34.65;24.63;;;;;;;3.69;91.83;100171.75;4158359;28;20229;-86
2023/02/06 04:35:37;;;;;;;32.95;23.20;;;;;;;3.70;91.19;100165.72;4156058;28;20667;-86
2023/02/06 04:37:40;;;;;;;32.20;22.63;;;;;;;3.75;92.58;100164.81;4153947;28;20203;-86
2023/02/06 04:39:43;;;;;;;29.55;22.25;;;;;;;3.83;92.78;100164.75;4149689;28;20254;-86
2023/02/06 04:41:46;;;;;;;32.90;23.70;;;;;;;3.87;91.10;100171.59;4154484;28;20210;-86
2023/02/06 04:43:49;;;;;;;30.23;23.23;;;;;;;3.88;92.32;100169.00;4152906;28;20650;-85
2023/02/06 04:45:52;;;;;;;33.33;23.27;;;;;;;3.93;91.56;100174.13;4170229;28;20256;-86
2023/02/06 04:47:57;;;;;;;30.55;22.67;;;;;;;3.97;92.22;100176.66;4174676;28;20203;-86
2023/02/06 04:50:01;;;;;;;33.45;23.52;;;;;;;3.99;91.76;100172.34;4158330;28;20290;-85
2023/02/06 04:52:04;;;;;;;31.65;23.05;;;;;;;4.03;92.35;100155.97;4141621;28;20250;-85
2023/02/06 04:54:08;;;;;;;31.38;22.75;;;;;;;4.06;90.91;100157.63;4172134;28;20297;-86
2023/02/06 04:56:12;;;;;;;31.42;23.70;;;;;;;4.07;92.22;100154.19;4156352;28;20638;-86
2023/02/06 04:58:15;;;;;;;31.38;22.92;;;;;;;4.10;92.44;100160.19;4159794;28;20294;-86
2023/02/06 05:00:18;;;;;;;32.70;23.52;;;;;;;4.12;92.46;100160.16;4156383;28;20687;-85
2023/02/06 05:02:21;;;;;;;32.30;24.25;;;;;;;4.12;91.58;100155.88;4171271;28;20582;-85
2023/02/06 05:04:26;;;;;;;33.72;24.15;;;;;;;4.14;92.40;100150.69;4175095;28;20213;-85
2023/02/06 05:06:30;;;;;;;30.98;22.48;;;;;;;4.16;91.60;100160.13;4175313;28;20229;-85
2023/02/06 05:08:33;;;;;;;31.38;23.27;;;;;;;4.17;90.94;100158.41;4153743;28;21404;-85
2023/02/06 05:10:36;;;;;;;32.95;23.40;;;;;;;4.17;90.95;100161.00;4172809;28;20200;-85
2023/02/06 05:12:39;;;;;;;31.80;22.65;;;;;;;4.17;90.44;100155.84;4173967;28;20210;-85
2023/02/06 05:14:42;;;;;;;32.00;22.52;;;;;;;4.18;91.05;100158.41;4169874;28;20606;-85
2023/02/06 05:16:45;;;;;;;31.08;22.73;;;;;;;4.21;91.08;100160.94;4158217;28;20615;-85
2023/02/06 05:18:52;;;;;;;30.73;23.77;;;;;;;4.16;90.27;100159.28;4153429;28;20656;-85
2023/02/06 05:20:57;;;;;;;32.70;24.30;;;;;;;4.09;90.13;100163.66;4141475;28;20302;-86
2023/02/06 05:23:00;;;;;;;32.85;25.10;;;;;;;4.05;91.09;100174.00;4175037;28;20686;-85
2023/02/06 05:25:03;;;;;;;34.17;23.80;;;;;;;4.00;91.12;100173.19;4135966;28;20603;-85
2023/02/06 05:27:06;;;;;;;31.40;22.95;;;;;;;4.03;90.86;100174.03;4152835;28;20195;-85
2023/02/06 05:29:09;;;;;;;34.20;23.00;;;;;;;3.96;90.36;100166.34;4153847;28;20203;-85
2023/02/06 05:31:17;;;;;;;33.47;24.30;;;;;;;3.93;90.82;100168.97;4154030;28;20203;-85
2023/02/06 05:33:20;;;;;;;33.65;22.80;;;;;;;3.89;90.21;100159.53;4175418;28;20213;-85
2023/02/06 05:35:23;;;;;;;34.95;22.83;;;;;;;3.91;89.75;100158.66;4172907;28;20210;-85
2023/02/06 05:37:28;;;;;;;33.30;23.10;;;;;;;3.92;90.75;100160.34;4144419;28;20306;-86
2023/02/06 05:39:31;;;;;;;34.35;23.38;;;;;;;3.83;89.94;100164.75;4155775;28;20215;-86
2023/02/06 05:41:34;;;;;;;37.10;22.80;;;;;;;3.81;90.48;100163.91;4156074;28;20268;-86
2023/02/06 05:43:38;;;;;;;33.50;23.02;;;;;;;3.75;90.35;100161.38;4172764;28;20206;-86
2023/02/06 05:45:41;;;;;;;32.53;23.10;;;;;;;3.64;90.85;100162.31;4153240;28;20237;-85
2023/02/06 05:47:44;;;;;;;33.53;22.35;;;;;;;3.56;90.70;100162.38;4140549;28;20302;-85
2023/02/06 05:49:47;;;;;;;31.38;21.60;;;;;;;3.58;91.33;100163.25;4158166;28;20623;-85
2023/02/06 05:51:50;;;;;;;29.02;20.52;;;;;;;3.64;91.81;100160.63;4139934;28;20219;-86
2023/02/06 05:53:55;;;;;;;35.63;23.17;;;;;;;3.68;90.95;100164.03;4154504;28;20211;-85
2023/02/06 05:55:58;;;;;;;31.70;22.33;;;;;;;3.71;90.81;100153.69;4156235;28;20211;-86
2023/02/06 05:58:01;;;;;;;30.52;21.42;;;;;;;3.73;90.93;100147.66;4138960;28;20660;-85
2023/02/06 06:00:05;;;;;;;28.90;19.60;;;;;;;3.77;91.29;100150.19;4152791;28;20250;-85
2023/02/06 06:02:13;;;;;;;27.77;19.77;;;;;;;3.80;89.79;100149.28;4168996;28;20222;-85
2023/02/06 06:04:16;;;;;;;27.63;19.55;;;;;;;3.85;90.72;100155.28;4154910;28;20243;-85
2023/02/06 06:06:19;;;;;;;31.92;20.45;;;;;;;3.87;90.57;100161.28;4159385;28;21040;-85
2023/02/06 06:08:22;;;;;;;30.08;21.38;;;;;;;3.91;90.92;100173.25;4175538;28;20221;-85
2023/02/06 06:10:27;;;;;;;40.58;25.23;;;;;;;3.89;90.11;100168.16;4172979;28;20784;-85
2023/02/06 06:12:30;;;;;;;38.42;23.60;;;;;;;3.84;88.89;100167.31;4167976;28;20240;-85
2023/02/06 06:14:33;;;;;;;27.50;19.13;;;;;;;3.77;89.16;100163.09;4156627;28;20238;-85
2023/02/06 06:16:36;;;;;;;25.88;18.92;;;;;;;3.64;88.71;100172.63;4172009;28;20658;-86
2023/02/06 06:18:39;;;;;;;23.92;16.75;;;;;;;3.49;88.42;100158.16;4171894;28;20648;-85
2023/02/06 06:20:42;;;;;;;23.25;14.90;;;;;;;3.45;88.43;100159.03;4153443;28;20852;-85
2023/02/06 06:22:45;;;;;;;20.60;15.00;;;;;;;3.47;88.90;100179.66;4139844;28;20207;-86
2023/02/06 06:24:48;;;;;;;20.38;13.50;;;;;;;3.44;87.66;100188.28;4153549;28;20203;-85
2023/02/06 06:26:53;;;;;;;19.75;13.88;;;;;;;3.31;86.66;100183.22;4150327;28;20215;-86
2023/02/06 06:28:56;;;;;;;19.08;11.85;;;;;;;3.18;86.15;100181.56;4139922;28;20617;-86
2023/02/06 06:31:03;;;;;;;18.10;12.25;;;;;;;3.13;86.67;100172.13;4165448;28;20963;-86
2023/02/06 06:33:06;;;;;;;15.88;11.43;;;;;;;3.14;85.85;100166.97;4157234;28;20226;-85
2023/02/06 06:35:09;;;;;;;14.45;11.00;;;;;;;3.14;85.68;100166.13;4137284;28;20240;-85
2023/02/06 06:37:12;;;;;;;16.23;11.93;;;;;;;3.19;85.98;100170.41;4155035;28;20652;-86
2023/02/06 06:39:15;;;;;;;19.08;13.23;;;;;;;3.18;85.86;100175.56;4154201;28;20268;-86
2023/02/06 06:41:18;;;;;;;14.57;10.35;;;;;;;3.04;86.22;100170.47;4154057;28;20261;-85
2023/02/06 06:43:22;;;;;;;19.98;13.80;;;;;;;3.07;86.10;100178.19;4140282;28;20246;-85
2023/02/06 06:45:25;;;;;;;22.80;15.48;;;;;;;3.12;86.64;100173.88;4156575;28;20211;-85
2023/02/06 06:47:28;;;;;;;20.20;13.95;;;;;;;3.22;86.98;100172.06;4171785;28;20213;-85
2023/02/06 06:49:32;;;;;;;16.17;12.40;;;;;;;3.28;86.92;100184.06;4171685;28;20610;-85
2023/02/06 06:51:35;;;;;;;19.20;13.25;;;;;;;3.34;86.41;100173.72;4142869;28;20683;-85
2023/02/06 06:53:38;;;;;;;17.95;13.40;;;;;;;3.43;87.54;100185.72;4173119;28;20238;-85
2023/02/06 06:55:42;;;;;;;18.52;14.02;;;;;;;3.50;86.50;100180.50;4136933;28;20208;-85
2023/02/06 06:57:45;;;;;;;16.25;12.15;;;;;;;3.56;87.27;100180.44;4139994;28;20327;-85
2023/02/06 06:59:49;;;;;;;19.10;13.30;;;;;;;3.59;86.66;100180.41;4154044;28;20203;-85
2023/02/06 07:01:52;;;;;;;18.17;12.80;;;;;;;3.64;87.03;100180.38;4152641;28;20201;-85
2023/02/06 07:03:55;;;;;;;15.63;11.73;;;;;;;3.67;85.60;100183.81;4154141;28;20206;-87
2023/02/06 07:05:58;;;;;;;16.17;12.00;;;;;;;3.61;85.76;100176.13;4153667;28;20208;-85
2023/02/06 07:08:02;;;;;;;19.00;13.32;;;;;;;3.64;85.94;100182.97;4147988;28;20211;-86
2023/02/06 07:10:06;;;;;;;43.42;24.08;;;;;;;3.65;86.31;100185.53;4150115;28;20302;-86
2023/02/06 07:12:09;;;;;;;23.35;12.85;;;;;;;3.70;88.61;100186.38;4140753;28;20207;-85
2023/02/06 07:14:12;;;;;;;16.75;11.75;;;;;;;3.71;87.63;100180.31;4161348;28;20219;-85
2023/02/06 07:16:17;;;;;;;17.90;12.57;;;;;;;3.78;88.32;100184.56;4158907;28;20301;-86
2023/02/06 07:18:21;;;;;;;21.52;13.90;;;;;;;3.84;89.10;100197.44;4158244;28;20659;-86
2023/02/06 07:20:24;;;;;;;31.05;20.55;;;;;;;3.86;87.92;100198.25;4148194;28;20231;-86
2023/02/06 07:22:27;;;;;;;25.40;15.73;;;;;;;3.89;87.90;100196.53;4140922;28;20312;-87
2023/02/06 07:24:30;;;;;;;17.13;12.88;;;;;;;3.96;87.50;100198.16;4161498;28;20643;-89
2023/02/06 07:26:33;;;;;;;18.17;12.90;;;;;;;4.02;87.65;100202.44;4145635;28;20210;-86
2023/02/06 07:28:36;;;;;;;19.20;14.25;;;;;;;3.92;86.18;100201.63;4143939;28;20211;-86
2023/02/06 07:30:39;;;;;;;21.52;13.15;;;;;;;3.83;85.09;100199.16;4156986;28;20230;-87
2023/02/06 07:32:44;;;;;;;19.38;12.05;;;;;;;3.69;84.78;100191.53;4156418;28;20235;-86
2023/02/06 07:34:47;;;;;;;19.58;11.70;;;;;;;3.63;84.38;100191.59;4160925;28;20199;-87
2023/02/06 07:36:50;;;;;;;15.10;11.43;;;;;;;3.70;85.83;100198.38;4147653;28;20207;-88
2023/02/06 07:38:53;;;;;;;17.20;11.10;;;;;;;3.73;85.07;100188.91;4155151;28;20225;-88
2023/02/06 07:41:01;;;;;;;15.20;11.00;;;;;;;3.75;84.96;100192.34;4156106;28;20227;-87
2023/02/06 07:43:06;;;;;;;15.10;10.45;;;;;;;3.74;85.00;100190.59;4143660;28;20245;-87
2023/02/06 07:45:10;;;;;;;19.15;9.43;;;;;;;3.67;84.90;100188.97;4143737;28;20245;-87
2023/02/06 07:47:13;;;;;;;15.07;11.38;;;;;;;3.72;85.00;100190.63;4165420;28;20214;-86
2023/02/06 07:49:18;;;;;;;19.02;12.20;;;;;;;3.78;85.64;100189.72;4157986;28;20384;-87
2023/02/06 07:51:21;;;;;;;14.63;11.13;;;;;;;3.85;85.31;100181.09;4155614;28;20682;-86
2023/02/06 07:53:25;;;;;;;15.85;10.93;;;;;;;3.86;85.05;100177.63;4173166;28;20213;-87
2023/02/06 07:55:28;;;;;;;15.13;11.07;;;;;;;3.89;85.55;100172.44;4177017;28;20210;-87
2023/02/06 07:57:32;;;;;;;16.13;11.38;;;;;;;3.96;85.01;100174.09;4174580;28;20221;-89
2023/02/06 07:59:35;;;;;;;20.05;12.32;;;;;;;4.02;85.57;100181.78;4160390;28;20290;-87
2023/02/06 08:01:38;;;;;;;14.45;11.13;;;;;;;4.06;85.87;100180.88;4138896;28;20227;-86
2023/02/06 08:03:41;;;;;;;15.48;11.77;;;;;;;4.09;85.44;100186.00;4170494;28;20242;-86
2023/02/06 08:05:45;;;;;;;16.08;12.35;;;;;;;4.09;84.46;100193.75;4167661;28;20242;-87
2023/02/06 08:07:50;;;;;;;15.57;10.50;;;;;;;4.09;85.42;100191.16;4142423;28;20245;-87
2023/02/06 08:09:53;;;;;;;15.10;11.20;;;;;;;4.13;84.11;100177.38;4173335;28;20202;-87
2023/02/06 08:11:57;;;;;;;14.65;10.95;;;;;;;4.11;84.16;100176.53;4152313;28;20337;-86
2023/02/06 08:14:00;;;;;;;15.63;11.02;;;;;;;4.10;83.24;100179.97;4138243;28;20227;-87
2023/02/06 08:16:05;;;;;;;15.00;10.98;;;;;;;4.07;83.44;100180.84;4158018;28;20207;-87
2023/02/06 08:18:09;;;;;;;15.45;11.25;;;;;;;4.10;83.98;100177.41;4141367;28;20211;-87
2023/02/06 08:20:12;;;;;;;13.82;11.05;;;;;;;4.13;83.80;100172.22;4178731;28;20210;-87
2023/02/06 08:22:17;;;;;;;20.80;11.73;;;;;;;4.17;84.00;100173.91;4154807;28;20218;-87
2023/02/06 08:24:20;;;;;;;13.93;10.73;;;;;;;4.18;84.15;100180.75;4174097;28;20206;-86
2023/02/06 08:26:23;;;;;;;14.20;11.05;;;;;;;4.20;84.11;100181.63;4158919;28;20212;-87
2023/02/06 08:28:26;;;;;;;16.10;11.70;;;;;;;4.23;84.43;100187.59;4173052;28;20210;-87
2023/02/06 08:30:31;;;;;;;17.10;12.23;;;;;;;4.26;84.16;100192.72;4172970;28;20210;-87
2023/02/06 08:32:35;;;;;;;17.35;13.00;;;;;;;4.29;84.54;100198.72;4143753;28;20262;-87
2023/02/06 08:34:39;;;;;;;19.42;14.02;;;;;;;4.28;84.35;100189.28;4170714;28;20251;-87
2023/02/06 08:36:42;;;;;;;23.63;15.52;;;;;;;4.26;83.15;100187.56;4175665;28;20221;-87
2023/02/06 08:38:48;;;;;;;20.40;14.50;;;;;;;4.27;83.53;100179.81;4158677;28;20256;-87
2023/02/06 08:40:51;;;;;;;23.83;14.55;;;;;;;4.28;83.18;100186.69;4157760;28;20213;-87
2023/02/06 08:42:54;;;;;;;20.30;13.75;;;;;;;4.32;83.51;100180.59;4156636;28;20195;-86
2023/02/06 08:44:57;;;;;;;13.63;10.55;;;;;;;4.34;83.25;100180.59;4165145;28;20198;-87
2023/02/06 08:47:00;;;;;;;18.10;13.88;;;;;;;4.34;83.20;100176.28;4140656;28;20599;-87
2023/02/06 08:49:13;;;;;;;13.85;9.52;;;;;;;4.42;83.09;100187.41;4158224;28;20207;-87
2023/02/06 08:51:17;;;;;;;11.55;9.60;;;;;;;4.45;82.35;100187.38;4171289;28;20203;-88
2023/02/06 08:53:20;;;;;;;13.82;8.98;;;;;;;4.47;82.21;100187.34;4135794;28;20575;-87
2023/02/06 08:55:24;;;;;;;12.20;9.57;;;;;;;4.49;81.81;100183.84;4156180;28;20301;-87
2023/02/06 08:57:27;;;;;;;12.35;9.35;;;;;;;4.52;82.02;100191.56;4133710;28;20214;-87
2023/02/06 08:59:31;;;;;;;13.40;10.20;;;;;;;4.57;83.23;100187.25;4135825;28;20208;-87
2023/02/06 09:01:35;;;;;;;12.80;7.65;;;;;;;4.56;81.99;100182.94;4173626;28;20872;-86
2023/02/06 09:03:38;;;;;;;9.20;7.57;;;;;;;4.51;80.44;100184.72;4154938;28;20250;-87
2023/02/06 09:05:41;;;;;;;14.45;9.48;;;;;;;4.51;81.49;100176.09;4142299;28;20208;-86
2023/02/06 09:07:45;;;;;;;11.02;7.72;;;;;;;4.51;81.44;100176.09;4157645;28;20214;-86
2023/02/06 09:09:48;;;;;;;10.55;7.35;;;;;;;4.51;80.80;100171.81;4157142;28;20207;-86
2023/02/06 09:11:54;;;;;;;11.10;7.50;;;;;;;4.52;81.55;100175.22;4168240;28;20214;-86
2023/02/06 09:13:58;;;;;;;13.15;9.10;;;;;;;4.54;81.60;100176.94;4153952;28;20228;-87
2023/02/06 09:16:02;;;;;;;9.45;7.43;;;;;;;4.55;81.76;100173.47;4171551;28;20237;-86
2023/02/06 09:18:05;;;;;;;9.38;6.60;;;;;;;4.57;81.89;100178.59;4157773;28;20215;-86
2023/02/06 09:20:09;;;;;;;8.65;6.10;;;;;;;4.58;80.35;100186.34;4138935;28;20211;-86
2023/02/06 09:22:12;;;;;;;11.23;6.65;;;;;;;4.55;79.81;100188.97;4139441;28;20237;-87
2023/02/06 09:24:15;;;;;;;9.35;6.72;;;;;;;4.52;80.76;100180.41;4154568;28;20257;-87
2023/02/06 09:26:22;;;;;;;9.10;7.00;;;;;;;4.48;80.46;100174.41;4154973;28;20715;-86
2023/02/06 09:28:27;;;;;;;10.82;7.25;;;;;;;4.48;80.69;100174.41;4152738;28;20309;-86
2023/02/06 09:30:30;;;;;;;9.70;7.70;;;;;;;4.46;80.91;100175.31;4153214;28;20708;-87
2023/02/06 09:32:34;;;;;;;11.18;7.75;;;;;;;4.47;81.15;100167.53;4141816;28;20226;-86